sensor_id;sensor_type;location;lat;lon;timestamp;temperature;humidity
22114;DHT22;11223;49.968;9.062;2023-06-04T00:02:10;14.10;74.40
22114;DHT22;11223;49.968;9.062;2023-06-04T00:04:35;14.00;74.00
22114;DHT22;11223;49.968;9.062;2023-06-04T00:07:01;13.90;74.70
22114;DHT22;11223;49.968;9.062;2023-06-04T00:09:27;13.80;74.80
22114;DHT22;11223;49.968;9.062;2023-06-04T00:11:52;13.70;74.10
22114;DHT22;11223;49.968;9.062;2023-06-04T00:14:18;13.60;73.60
22114;DHT22;11223;49.968;9.062;2023-06-04T00:16:43;13.60;74.40
22114;DHT22;11223;49.968;9.062;2023-06-04T00:19:09;13.50;72.70
22114;DHT22;11223;49.968;9.062;2023-06-04T00:21:35;13.40;72.80
22114;DHT22;11223;49.968;9.062;2023-06-04T00:24:01;13.40;73.10
22114;DHT22;11223;49.968;9.062;2023-06-04T00:26:27;13.30;73.80
22114;DHT22;11223;49.968;9.062;2023-06-04T00:28:54;13.30;73.90
22114;DHT22;11223;49.968;9.062;2023-06-04T00:31:20;13.20;73.30
22114;DHT22;11223;49.968;9.062;2023-06-04T00:33:47;13.10;73.40
22114;DHT22;11223;49.968;9.062;2023-06-04T00:36:12;13.10;73.20
22114;DHT22;11223;49.968;9.062;2023-06-04T00:38:38;13.00;75.30
22114;DHT22;11223;49.968;9.062;2023-06-04T00:41:04;12.90;75.20
22114;DHT22;11223;49.968;9.062;2023-06-04T00:43:30;12.80;73.90
22114;DHT22;11223;49.968;9.062;2023-06-04T00:45:57;12.80;73.60
22114;DHT22;11223;49.968;9.062;2023-06-04T00:48:23;12.80;72.90
22114;DHT22;11223;49.968;9.062;2023-06-04T00:50:49;12.80;74.40
22114;DHT22;11223;49.968;9.062;2023-06-04T00:53:16;12.80;74.80
22114;DHT22;11223;49.968;9.062;2023-06-04T00:55:41;12.80;75.00
22114;DHT22;11223;49.968;9.062;2023-06-04T00:58:08;12.80;75.20
22114;DHT22;11223;49.968;9.062;2023-06-04T01:00:36;12.80;76.50
22114;DHT22;11223;49.968;9.062;2023-06-04T01:03:07;12.80;76.30
22114;DHT22;11223;49.968;9.062;2023-06-04T01:05:48;12.80;75.60
22114;DHT22;11223;49.968;9.062;2023-06-04T01:08:17;12.80;75.40
22114;DHT22;11223;49.968;9.062;2023-06-04T01:10:55;12.80;75.80
22114;DHT22;11223;49.968;9.062;2023-06-04T01:13:21;12.80;76.00
22114;DHT22;11223;49.968;9.062;2023-06-04T01:15:47;12.80;75.50
22114;DHT22;11223;49.968;9.062;2023-06-04T01:18:21;12.80;76.10
22114;DHT22;11223;49.968;9.062;2023-06-04T01:20:59;12.80;76.70
22114;DHT22;11223;49.968;9.062;2023-06-04T01:25:59;12.60;76.40
22114;DHT22;11223;49.968;9.062;2023-06-04T01:28:25;12.50;76.80
22114;DHT22;11223;49.968;9.062;2023-06-04T01:30:52;12.50;77.10
22114;DHT22;11223;49.968;9.062;2023-06-04T01:33:19;12.40;77.60
22114;DHT22;11223;49.968;9.062;2023-06-04T01:35:45;12.30;77.40
22114;DHT22;11223;49.968;9.062;2023-06-04T01:38:11;12.30;78.00
22114;DHT22;11223;49.968;9.062;2023-06-04T01:40:37;12.30;78.70
22114;DHT22;11223;49.968;9.062;2023-06-04T01:43:03;12.20;78.10
22114;DHT22;11223;49.968;9.062;2023-06-04T01:45:29;12.20;77.70
22114;DHT22;11223;49.968;9.062;2023-06-04T01:47:55;12.10;77.60
22114;DHT22;11223;49.968;9.062;2023-06-04T01:50:21;12.10;78.40
22114;DHT22;11223;49.968;9.062;2023-06-04T01:52:47;12.10;79.20
22114;DHT22;11223;49.968;9.062;2023-06-04T01:55:14;12.00;79.50
22114;DHT22;11223;49.968;9.062;2023-06-04T01:57:41;12.00;80.30
22114;DHT22;11223;49.968;9.062;2023-06-04T02:00:08;11.90;80.60
22114;DHT22;11223;49.968;9.062;2023-06-04T02:02:36;11.90;81.10
22114;DHT22;11223;49.968;9.062;2023-06-04T02:05:05;11.90;81.60
22114;DHT22;11223;49.968;9.062;2023-06-04T02:07:38;11.80;82.30
22114;DHT22;11223;49.968;9.062;2023-06-04T02:10:09;11.80;82.60
22114;DHT22;11223;49.968;9.062;2023-06-04T02:12:40;11.70;82.40
22114;DHT22;11223;49.968;9.062;2023-06-04T02:15:06;11.60;82.60
22114;DHT22;11223;49.968;9.062;2023-06-04T02:17:32;11.60;83.40
22114;DHT22;11223;49.968;9.062;2023-06-04T02:19:58;11.50;83.50
22114;DHT22;11223;49.968;9.062;2023-06-04T02:22:25;11.50;83.30
22114;DHT22;11223;49.968;9.062;2023-06-04T02:24:51;11.50;83.20
22114;DHT22;11223;49.968;9.062;2023-06-04T02:27:16;11.50;83.10
22114;DHT22;11223;49.968;9.062;2023-06-04T02:29:42;11.50;83.00
22114;DHT22;11223;49.968;9.062;2023-06-04T02:32:08;11.40;83.30
22114;DHT22;11223;49.968;9.062;2023-06-04T02:34:34;11.40;83.70
22114;DHT22;11223;49.968;9.062;2023-06-04T02:36:59;11.40;83.90
22114;DHT22;11223;49.968;9.062;2023-06-04T02:39:25;11.30;84.40
22114;DHT22;11223;49.968;9.062;2023-06-04T02:41:50;11.30;84.90
22114;DHT22;11223;49.968;9.062;2023-06-04T02:44:16;11.30;85.50
22114;DHT22;11223;49.968;9.062;2023-06-04T02:46:41;11.20;86.20
22114;DHT22;11223;49.968;9.062;2023-06-04T02:49:07;11.10;86.30
22114;DHT22;11223;49.968;9.062;2023-06-04T02:51:32;11.10;86.60
22114;DHT22;11223;49.968;9.062;2023-06-04T02:53:58;11.00;86.30
22114;DHT22;11223;49.968;9.062;2023-06-04T02:56:23;11.00;86.60
22114;DHT22;11223;49.968;9.062;2023-06-04T02:58:50;10.90;86.90
22114;DHT22;11223;49.968;9.062;2023-06-04T03:01:22;10.90;86.70
22114;DHT22;11223;49.968;9.062;2023-06-04T03:03:48;10.90;87.70
22114;DHT22;11223;49.968;9.062;2023-06-04T03:06:14;10.90;88.70
22114;DHT22;11223;49.968;9.062;2023-06-04T03:08:40;10.80;89.10
22114;DHT22;11223;49.968;9.062;2023-06-04T03:11:05;10.70;89.30
22114;DHT22;11223;49.968;9.062;2023-06-04T03:13:31;10.70;89.70
22114;DHT22;11223;49.968;9.062;2023-06-04T03:15:57;10.60;90.00
22114;DHT22;11223;49.968;9.062;2023-06-04T03:18:26;10.60;90.20
22114;DHT22;11223;49.968;9.062;2023-06-04T03:20:52;10.50;90.40
22114;DHT22;11223;49.968;9.062;2023-06-04T03:23:18;10.50;90.40
22114;DHT22;11223;49.968;9.062;2023-06-04T03:25:43;10.40;90.40
22114;DHT22;11223;49.968;9.062;2023-06-04T03:28:09;10.40;90.40
22114;DHT22;11223;49.968;9.062;2023-06-04T03:30:34;10.40;90.30
22114;DHT22;11223;49.968;9.062;2023-06-04T03:33:00;10.40;90.40
22114;DHT22;11223;49.968;9.062;2023-06-04T03:35:26;10.40;90.60
22114;DHT22;11223;49.968;9.062;2023-06-04T03:37:51;10.40;90.80
22114;DHT22;11223;49.968;9.062;2023-06-04T03:40:16;10.30;90.70
22114;DHT22;11223;49.968;9.062;2023-06-04T03:42:42;10.30;90.70
22114;DHT22;11223;49.968;9.062;2023-06-04T03:45:07;10.30;90.70
22114;DHT22;11223;49.968;9.062;2023-06-04T03:47:33;10.30;90.80
22114;DHT22;11223;49.968;9.062;2023-06-04T03:49:58;10.30;90.90
22114;DHT22;11223;49.968;9.062;2023-06-04T03:52:24;10.30;91.00
22114;DHT22;11223;49.968;9.062;2023-06-04T03:54:49;10.20;91.00
22114;DHT22;11223;49.968;9.062;2023-06-04T03:57:15;10.30;91.30
22114;DHT22;11223;49.968;9.062;2023-06-04T03:59:40;10.30;91.80
22114;DHT22;11223;49.968;9.062;2023-06-04T04:02:06;10.20;92.10
22114;DHT22;11223;49.968;9.062;2023-06-04T04:04:31;10.30;92.30
22114;DHT22;11223;49.968;9.062;2023-06-04T04:06:58;10.30;92.50
22114;DHT22;11223;49.968;9.062;2023-06-04T04:09:25;10.30;92.70
22114;DHT22;11223;49.968;9.062;2023-06-04T04:11:51;10.30;92.90
22114;DHT22;11223;49.968;9.062;2023-06-04T04:14:16;10.40;93.20
22114;DHT22;11223;49.968;9.062;2023-06-04T04:16:42;10.40;93.30
22114;DHT22;11223;49.968;9.062;2023-06-04T04:19:07;10.40;93.50
22114;DHT22;11223;49.968;9.062;2023-06-04T04:21:36;10.50;93.60
22114;DHT22;11223;49.968;9.062;2023-06-04T04:24:02;10.50;93.70
22114;DHT22;11223;49.968;9.062;2023-06-04T04:26:28;10.50;93.80
22114;DHT22;11223;49.968;9.062;2023-06-04T04:28:54;10.50;94.00
22114;DHT22;11223;49.968;9.062;2023-06-04T04:31:29;10.50;94.40
22114;DHT22;11223;49.968;9.062;2023-06-04T04:33:55;10.50;94.60
22114;DHT22;11223;49.968;9.062;2023-06-04T04:36:21;10.50;94.80
22114;DHT22;11223;49.968;9.062;2023-06-04T04:38:47;10.60;95.00
22114;DHT22;11223;49.968;9.062;2023-06-04T04:41:19;10.60;94.90
22114;DHT22;11223;49.968;9.062;2023-06-04T04:43:46;10.60;95.20
22114;DHT22;11223;49.968;9.062;2023-06-04T04:46:12;10.70;95.20
22114;DHT22;11223;49.968;9.062;2023-06-04T04:48:37;10.70;95.30
22114;DHT22;11223;49.968;9.062;2023-06-04T04:51:04;10.80;95.70
22114;DHT22;11223;49.968;9.062;2023-06-04T04:53:29;10.80;96.20
22114;DHT22;11223;49.968;9.062;2023-06-04T04:55:55;10.90;96.40
22114;DHT22;11223;49.968;9.062;2023-06-04T04:58:20;11.00;96.70
22114;DHT22;11223;49.968;9.062;2023-06-04T05:00:46;11.00;96.70
22114;DHT22;11223;49.968;9.062;2023-06-04T05:03:13;11.10;96.70
22114;DHT22;11223;49.968;9.062;2023-06-04T05:05:38;11.20;96.90
22114;DHT22;11223;49.968;9.062;2023-06-04T05:08:04;11.20;97.00
22114;DHT22;11223;49.968;9.062;2023-06-04T05:10:30;11.30;97.10
22114;DHT22;11223;49.968;9.062;2023-06-04T05:12:59;11.40;97.10
22114;DHT22;11223;49.968;9.062;2023-06-04T05:15:26;11.50;97.30
22114;DHT22;11223;49.968;9.062;2023-06-04T05:17:52;11.60;97.70
22114;DHT22;11223;49.968;9.062;2023-06-04T05:20:19;11.60;97.90
22114;DHT22;11223;49.968;9.062;2023-06-04T05:22:46;11.80;98.10
22114;DHT22;11223;49.968;9.062;2023-06-04T05:25:12;11.90;98.30
22114;DHT22;11223;49.968;9.062;2023-06-04T05:27:40;12.00;98.20
22114;DHT22;11223;49.968;9.062;2023-06-04T05:30:08;12.10;98.20
22114;DHT22;11223;49.968;9.062;2023-06-04T05:32:33;12.20;98.20
22114;DHT22;11223;49.968;9.062;2023-06-04T05:35:05;12.30;98.20
22114;DHT22;11223;49.968;9.062;2023-06-04T05:37:32;12.40;98.10
22114;DHT22;11223;49.968;9.062;2023-06-04T05:39:59;12.50;98.20
22114;DHT22;11223;49.968;9.062;2023-06-04T05:42:25;12.60;97.70
22114;DHT22;11223;49.968;9.062;2023-06-04T05:44:51;12.70;97.40
22114;DHT22;11223;49.968;9.062;2023-06-04T05:47:17;12.80;97.30
22114;DHT22;11223;49.968;9.062;2023-06-04T05:49:43;13.00;97.00
22114;DHT22;11223;49.968;9.062;2023-06-04T05:52:09;13.00;97.10
22114;DHT22;11223;49.968;9.062;2023-06-04T05:54:34;13.20;97.10
22114;DHT22;11223;49.968;9.062;2023-06-04T05:56:59;13.30;96.70
22114;DHT22;11223;49.968;9.062;2023-06-04T05:59:25;13.50;97.60
22114;DHT22;11223;49.968;9.062;2023-06-04T06:01:50;13.60;97.40
22114;DHT22;11223;49.968;9.062;2023-06-04T06:04:16;13.70;96.50
22114;DHT22;11223;49.968;9.062;2023-06-04T06:06:42;13.80;96.80
22114;DHT22;11223;49.968;9.062;2023-06-04T06:09:12;14.00;95.80
22114;DHT22;11223;49.968;9.062;2023-06-04T06:11:38;14.20;94.50
22114;DHT22;11223;49.968;9.062;2023-06-04T06:14:03;14.30;94.20
22114;DHT22;11223;49.968;9.062;2023-06-04T06:16:29;14.50;94.70
22114;DHT22;11223;49.968;9.062;2023-06-04T06:18:55;14.60;95.20
22114;DHT22;11223;49.968;9.062;2023-06-04T06:21:21;14.70;94.90
22114;DHT22;11223;49.968;9.062;2023-06-04T06:23:46;14.90;93.40
22114;DHT22;11223;49.968;9.062;2023-06-04T06:26:12;15.00;93.50
22114;DHT22;11223;49.968;9.062;2023-06-04T06:28:39;15.20;93.10
22114;DHT22;11223;49.968;9.062;2023-06-04T06:31:04;15.40;87.50
22114;DHT22;11223;49.968;9.062;2023-06-04T06:33:30;15.60;83.60
22114;DHT22;11223;49.968;9.062;2023-06-04T06:35:56;15.80;83.10
22114;DHT22;11223;49.968;9.062;2023-06-04T06:38:25;16.10;82.10
22114;DHT22;11223;49.968;9.062;2023-06-04T06:40:51;16.30;85.00
22114;DHT22;11223;49.968;9.062;2023-06-04T06:43:16;16.40;82.40
22114;DHT22;11223;49.968;9.062;2023-06-04T06:45:42;16.60;80.00
22114;DHT22;11223;49.968;9.062;2023-06-04T06:48:07;16.80;78.80
22114;DHT22;11223;49.968;9.062;2023-06-04T06:50:33;17.00;78.10
22114;DHT22;11223;49.968;9.062;2023-06-04T06:53:01;17.10;79.20
22114;DHT22;11223;49.968;9.062;2023-06-04T06:55:27;17.30;76.50
22114;DHT22;11223;49.968;9.062;2023-06-04T06:57:52;17.40;74.60
22114;DHT22;11223;49.968;9.062;2023-06-04T07:00:18;17.50;70.50
22114;DHT22;11223;49.968;9.062;2023-06-04T07:02:44;17.70;69.30
22114;DHT22;11223;49.968;9.062;2023-06-04T07:05:10;17.80;68.90
22114;DHT22;11223;49.968;9.062;2023-06-04T07:07:36;17.90;67.70
22114;DHT22;11223;49.968;9.062;2023-06-04T07:10:02;18.10;66.40
22114;DHT22;11223;49.968;9.062;2023-06-04T07:12:29;18.20;66.30
22114;DHT22;11223;49.968;9.062;2023-06-04T07:14:55;18.40;66.80
22114;DHT22;11223;49.968;9.062;2023-06-04T07:17:21;18.50;65.00
22114;DHT22;11223;49.968;9.062;2023-06-04T07:19:47;18.60;65.00
22114;DHT22;11223;49.968;9.062;2023-06-04T07:22:13;18.70;65.00
22114;DHT22;11223;49.968;9.062;2023-06-04T07:24:41;18.80;64.50
22114;DHT22;11223;49.968;9.062;2023-06-04T07:27:14;18.80;64.10
22114;DHT22;11223;49.968;9.062;2023-06-04T07:29:40;19.00;64.80
22114;DHT22;11223;49.968;9.062;2023-06-04T07:32:08;19.10;62.80
22114;DHT22;11223;49.968;9.062;2023-06-04T07:34:33;19.20;63.10
22114;DHT22;11223;49.968;9.062;2023-06-04T07:36:59;19.30;63.70
22114;DHT22;11223;49.968;9.062;2023-06-04T07:39:24;19.40;63.20
22114;DHT22;11223;49.968;9.062;2023-06-04T07:41:50;19.50;61.00
22114;DHT22;11223;49.968;9.062;2023-06-04T07:44:16;19.70;60.40
22114;DHT22;11223;49.968;9.062;2023-06-04T07:46:41;19.80;60.20
22114;DHT22;11223;49.968;9.062;2023-06-04T07:49:07;20.00;59.80
22114;DHT22;11223;49.968;9.062;2023-06-04T07:51:33;20.10;59.10
22114;DHT22;11223;49.968;9.062;2023-06-04T07:54:00;20.30;60.60
22114;DHT22;11223;49.968;9.062;2023-06-04T07:56:26;20.40;58.90
22114;DHT22;11223;49.968;9.062;2023-06-04T07:58:52;20.60;59.00
22114;DHT22;11223;49.968;9.062;2023-06-04T08:01:17;20.70;59.50
22114;DHT22;11223;49.968;9.062;2023-06-04T08:03:43;20.90;59.80
22114;DHT22;11223;49.968;9.062;2023-06-04T08:06:09;21.00;59.70
22114;DHT22;11223;49.968;9.062;2023-06-04T08:08:35;21.00;59.10
22114;DHT22;11223;49.968;9.062;2023-06-04T08:11:01;21.20;59.30
22114;DHT22;11223;49.968;9.062;2023-06-04T08:13:28;21.30;58.20
22114;DHT22;11223;49.968;9.062;2023-06-04T08:15:53;21.40;58.60
22114;DHT22;11223;49.968;9.062;2023-06-04T08:18:19;21.50;58.90
22114;DHT22;11223;49.968;9.062;2023-06-04T08:20:45;21.70;56.80
22114;DHT22;11223;49.968;9.062;2023-06-04T08:23:11;21.80;58.00
22114;DHT22;11223;49.968;9.062;2023-06-04T08:25:36;21.90;57.80
22114;DHT22;11223;49.968;9.062;2023-06-04T08:28:02;21.90;57.10
22114;DHT22;11223;49.968;9.062;2023-06-04T08:30:28;22.00;58.40
22114;DHT22;11223;49.968;9.062;2023-06-04T08:32:54;22.10;57.90
22114;DHT22;11223;49.968;9.062;2023-06-04T08:35:20;22.20;55.50
22114;DHT22;11223;49.968;9.062;2023-06-04T08:37:46;22.30;56.30
22114;DHT22;11223;49.968;9.062;2023-06-04T08:40:12;22.30;54.70
22114;DHT22;11223;49.968;9.062;2023-06-04T08:42:41;22.40;56.30
22114;DHT22;11223;49.968;9.062;2023-06-04T08:45:11;22.40;55.60
22114;DHT22;11223;49.968;9.062;2023-06-04T08:47:43;22.40;55.80
22114;DHT22;11223;49.968;9.062;2023-06-04T08:50:10;22.40;55.70
22114;DHT22;11223;49.968;9.062;2023-06-04T08:52:37;22.40;54.30
22114;DHT22;11223;49.968;9.062;2023-06-04T08:55:04;22.40;54.90
22114;DHT22;11223;49.968;9.062;2023-06-04T08:57:31;22.40;55.50
22114;DHT22;11223;49.968;9.062;2023-06-04T08:59:56;22.50;54.20
22114;DHT22;11223;49.968;9.062;2023-06-04T09:02:22;22.60;55.10
22114;DHT22;11223;49.968;9.062;2023-06-04T09:04:49;22.70;56.20
22114;DHT22;11223;49.968;9.062;2023-06-04T09:07:16;22.80;54.40
22114;DHT22;11223;49.968;9.062;2023-06-04T09:09:44;23.00;53.00
22114;DHT22;11223;49.968;9.062;2023-06-04T09:12:21;23.20;52.30
22114;DHT22;11223;49.968;9.062;2023-06-04T09:14:48;23.30;51.60
22114;DHT22;11223;49.968;9.062;2023-06-04T09:17:22;23.50;50.40
22114;DHT22;11223;49.968;9.062;2023-06-04T09:19:47;23.60;49.80
22114;DHT22;11223;49.968;9.062;2023-06-04T09:22:13;23.70;49.10
22114;DHT22;11223;49.968;9.062;2023-06-04T09:24:43;23.60;48.70
22114;DHT22;11223;49.968;9.062;2023-06-04T09:27:16;23.60;48.70
22114;DHT22;11223;49.968;9.062;2023-06-04T09:29:55;23.70;48.80
22114;DHT22;11223;49.968;9.062;2023-06-04T09:32:24;23.70;50.60
22114;DHT22;11223;49.968;9.062;2023-06-04T09:34:52;23.80;49.30
22114;DHT22;11223;49.968;9.062;2023-06-04T09:37:18;23.90;48.90
22114;DHT22;11223;49.968;9.062;2023-06-04T09:39:54;23.90;50.40
22114;DHT22;11223;49.968;9.062;2023-06-04T09:42:20;23.90;51.00
22114;DHT22;11223;49.968;9.062;2023-06-04T09:44:47;24.00;48.00
22114;DHT22;11223;49.968;9.062;2023-06-04T09:47:12;24.10;49.10
22114;DHT22;11223;49.968;9.062;2023-06-04T09:49:46;24.20;48.90
22114;DHT22;11223;49.968;9.062;2023-06-04T09:52:12;24.20;47.50
22114;DHT22;11223;49.968;9.062;2023-06-04T09:54:42;24.30;47.10
22114;DHT22;11223;49.968;9.062;2023-06-04T09:57:15;24.40;47.20
22114;DHT22;11223;49.968;9.062;2023-06-04T09:59:49;24.50;47.00
22114;DHT22;11223;49.968;9.062;2023-06-04T10:02:26;24.50;46.80
22114;DHT22;11223;49.968;9.062;2023-06-04T10:04:55;24.60;47.50
22114;DHT22;11223;49.968;9.062;2023-06-04T10:07:24;24.60;47.10
22114;DHT22;11223;49.968;9.062;2023-06-04T10:09:50;24.50;47.50
22114;DHT22;11223;49.968;9.062;2023-06-04T10:12:29;24.50;48.70
22114;DHT22;11223;49.968;9.062;2023-06-04T10:15:04;24.70;50.20
22114;DHT22;11223;49.968;9.062;2023-06-04T10:17:32;24.80;50.40
22114;DHT22;11223;49.968;9.062;2023-06-04T10:20:00;24.90;46.70
22114;DHT22;11223;49.968;9.062;2023-06-04T10:22:28;25.00;47.70
22114;DHT22;11223;49.968;9.062;2023-06-04T10:24:54;25.10;47.30
22114;DHT22;11223;49.968;9.062;2023-06-04T10:27:20;25.20;46.80
22114;DHT22;11223;49.968;9.062;2023-06-04T10:29:49;25.10;46.90
22114;DHT22;11223;49.968;9.062;2023-06-04T10:32:15;25.00;47.00
22114;DHT22;11223;49.968;9.062;2023-06-04T10:34:40;25.00;47.10
22114;DHT22;11223;49.968;9.062;2023-06-04T10:37:06;25.10;47.10
22114;DHT22;11223;49.968;9.062;2023-06-04T10:39:32;25.20;46.80
22114;DHT22;11223;49.968;9.062;2023-06-04T10:42:02;25.30;46.70
22114;DHT22;11223;49.968;9.062;2023-06-04T10:44:30;25.40;47.20
22114;DHT22;11223;49.968;9.062;2023-06-04T10:46:57;25.60;47.30
22114;DHT22;11223;49.968;9.062;2023-06-04T10:49:27;25.70;46.10
22114;DHT22;11223;49.968;9.062;2023-06-04T10:51:53;25.90;45.90
22114;DHT22;11223;49.968;9.062;2023-06-04T10:54:25;26.00;44.50
22114;DHT22;11223;49.968;9.062;2023-06-04T10:56:52;26.00;44.80
22114;DHT22;11223;49.968;9.062;2023-06-04T10:59:18;26.00;46.60
22114;DHT22;11223;49.968;9.062;2023-06-04T11:01:45;26.00;43.70
22114;DHT22;11223;49.968;9.062;2023-06-04T11:04:25;26.00;45.90
22114;DHT22;11223;49.968;9.062;2023-06-04T11:07:05;26.20;43.60
22114;DHT22;11223;49.968;9.062;2023-06-04T11:09:38;26.30;43.60
22114;DHT22;11223;49.968;9.062;2023-06-04T11:12:12;26.20;44.80
22114;DHT22;11223;49.968;9.062;2023-06-04T11:14:38;26.20;43.20
22114;DHT22;11223;49.968;9.062;2023-06-04T11:17:11;26.20;43.40
22114;DHT22;11223;49.968;9.062;2023-06-04T11:19:37;26.10;44.10
22114;DHT22;11223;49.968;9.062;2023-06-04T11:22:06;26.20;46.00
22114;DHT22;11223;49.968;9.062;2023-06-04T11:24:35;26.30;45.50
22114;DHT22;11223;49.968;9.062;2023-06-04T11:27:01;26.50;46.30
22114;DHT22;11223;49.968;9.062;2023-06-04T11:29:28;26.70;45.90
22114;DHT22;11223;49.968;9.062;2023-06-04T11:31:54;26.80;45.80
22114;DHT22;11223;49.968;9.062;2023-06-04T11:34:23;26.90;45.20
22114;DHT22;11223;49.968;9.062;2023-06-04T11:36:49;26.80;44.00
22114;DHT22;11223;49.968;9.062;2023-06-04T11:39:18;26.90;42.10
22114;DHT22;11223;49.968;9.062;2023-06-04T11:41:43;26.90;41.30
22114;DHT22;11223;49.968;9.062;2023-06-04T11:44:11;26.90;41.20
22114;DHT22;11223;49.968;9.062;2023-06-04T11:46:43;26.90;43.50
22114;DHT22;11223;49.968;9.062;2023-06-04T11:49:16;26.90;42.90
22114;DHT22;11223;49.968;9.062;2023-06-04T11:51:49;26.90;41.40
22114;DHT22;11223;49.968;9.062;2023-06-04T11:54:21;26.90;43.60
22114;DHT22;11223;49.968;9.062;2023-06-04T11:56:51;27.00;44.10
22114;DHT22;11223;49.968;9.062;2023-06-04T11:59:18;27.20;42.10
22114;DHT22;11223;49.968;9.062;2023-06-04T12:01:45;27.20;41.40
22114;DHT22;11223;49.968;9.062;2023-06-04T12:04:20;27.20;41.70
22114;DHT22;11223;49.968;9.062;2023-06-04T12:07:00;27.20;41.30
22114;DHT22;11223;49.968;9.062;2023-06-04T12:09:30;27.20;42.50
22114;DHT22;11223;49.968;9.062;2023-06-04T12:12:09;27.20;43.90
22114;DHT22;11223;49.968;9.062;2023-06-04T12:14:34;27.20;42.60
22114;DHT22;11223;49.968;9.062;2023-06-04T12:17:07;27.30;43.90
22114;DHT22;11223;49.968;9.062;2023-06-04T12:19:48;27.50;42.70
22114;DHT22;11223;49.968;9.062;2023-06-04T12:22:14;27.50;41.70
22114;DHT22;11223;49.968;9.062;2023-06-04T12:24:50;27.60;42.30
22114;DHT22;11223;49.968;9.062;2023-06-04T12:27:19;27.80;42.00
22114;DHT22;11223;49.968;9.062;2023-06-04T12:30:00;27.70;42.60
22114;DHT22;11223;49.968;9.062;2023-06-04T12:32:26;27.80;41.10
22114;DHT22;11223;49.968;9.062;2023-06-04T12:34:52;27.80;41.00
22114;DHT22;11223;49.968;9.062;2023-06-04T12:37:20;27.70;40.40
22114;DHT22;11223;49.968;9.062;2023-06-04T12:39:45;27.70;41.30
22114;DHT22;11223;49.968;9.062;2023-06-04T12:42:11;27.90;41.30
22114;DHT22;11223;49.968;9.062;2023-06-04T12:44:38;28.00;42.10
22114;DHT22;11223;49.968;9.062;2023-06-04T12:47:04;28.10;40.80
22114;DHT22;11223;49.968;9.062;2023-06-04T12:49:30;28.10;40.50
22114;DHT22;11223;49.968;9.062;2023-06-04T12:51:56;28.10;43.10
22114;DHT22;11223;49.968;9.062;2023-06-04T12:54:22;28.00;40.10
22114;DHT22;11223;49.968;9.062;2023-06-04T12:56:48;28.10;41.30
22114;DHT22;11223;49.968;9.062;2023-06-04T12:59:14;28.20;39.80
22114;DHT22;11223;49.968;9.062;2023-06-04T13:01:40;28.40;39.10
22114;DHT22;11223;49.968;9.062;2023-06-04T13:04:06;28.50;39.70
22114;DHT22;11223;49.968;9.062;2023-06-04T13:06:33;28.50;41.60
22114;DHT22;11223;49.968;9.062;2023-06-04T13:08:59;28.60;42.00
22114;DHT22;11223;49.968;9.062;2023-06-04T13:11:24;28.70;41.80
22114;DHT22;11223;49.968;9.062;2023-06-04T13:13:50;28.70;39.90
22114;DHT22;11223;49.968;9.062;2023-06-04T13:16:16;28.70;39.00
22114;DHT22;11223;49.968;9.062;2023-06-04T13:18:41;28.80;38.30
22114;DHT22;11223;49.968;9.062;2023-06-04T13:21:07;28.80;38.50
22114;DHT22;11223;49.968;9.062;2023-06-04T13:23:32;28.80;38.00
22114;DHT22;11223;49.968;9.062;2023-06-04T13:25:58;28.80;38.90
22114;DHT22;11223;49.968;9.062;2023-06-04T13:28:23;28.80;40.30
22114;DHT22;11223;49.968;9.062;2023-06-04T13:30:49;28.70;39.50
22114;DHT22;11223;49.968;9.062;2023-06-04T13:33:15;28.60;40.70
22114;DHT22;11223;49.968;9.062;2023-06-04T13:35:41;28.40;40.30
22114;DHT22;11223;49.968;9.062;2023-06-04T13:38:08;28.30;42.00
22114;DHT22;11223;49.968;9.062;2023-06-04T13:40:36;28.20;42.20
22114;DHT22;11223;49.968;9.062;2023-06-04T13:43:02;28.10;39.90
22114;DHT22;11223;49.968;9.062;2023-06-04T13:45:28;27.90;39.40
22114;DHT22;11223;49.968;9.062;2023-06-04T13:47:53;27.80;38.90
22114;DHT22;11223;49.968;9.062;2023-06-04T13:50:19;27.70;40.70
22114;DHT22;11223;49.968;9.062;2023-06-04T13:52:44;27.40;41.50
22114;DHT22;11223;49.968;9.062;2023-06-04T13:55:12;27.20;41.70
22114;DHT22;11223;49.968;9.062;2023-06-04T13:57:38;27.10;41.00
22114;DHT22;11223;49.968;9.062;2023-06-04T14:00:04;27.10;40.70
22114;DHT22;11223;49.968;9.062;2023-06-04T14:02:31;27.20;41.10
22114;DHT22;11223;49.968;9.062;2023-06-04T14:04:57;27.20;41.80
22114;DHT22;11223;49.968;9.062;2023-06-04T14:07:22;27.00;43.10
22114;DHT22;11223;49.968;9.062;2023-06-04T14:09:48;27.00;42.10
22114;DHT22;11223;49.968;9.062;2023-06-04T14:12:20;27.10;42.70
22114;DHT22;11223;49.968;9.062;2023-06-04T14:14:46;27.30;41.60
22114;DHT22;11223;49.968;9.062;2023-06-04T14:17:12;27.60;41.10
22114;DHT22;11223;49.968;9.062;2023-06-04T14:19:39;27.80;39.80
22114;DHT22;11223;49.968;9.062;2023-06-04T14:22:05;27.90;39.40
22114;DHT22;11223;49.968;9.062;2023-06-04T14:24:31;27.70;41.40
22114;DHT22;11223;49.968;9.062;2023-06-04T14:26:56;27.40;41.90
22114;DHT22;11223;49.968;9.062;2023-06-04T14:29:22;27.20;40.40
22114;DHT22;11223;49.968;9.062;2023-06-04T14:31:48;27.00;39.10
22114;DHT22;11223;49.968;9.062;2023-06-04T14:34:13;26.70;42.80
22114;DHT22;11223;49.968;9.062;2023-06-04T14:36:39;26.40;43.40
22114;DHT22;11223;49.968;9.062;2023-06-04T14:39:05;26.10;45.80
22114;DHT22;11223;49.968;9.062;2023-06-04T14:41:30;25.80;45.40
22114;DHT22;11223;49.968;9.062;2023-06-04T14:43:56;25.60;46.90
22114;DHT22;11223;49.968;9.062;2023-06-04T14:46:22;25.50;47.90
22114;DHT22;11223;49.968;9.062;2023-06-04T14:48:48;25.60;47.40
22114;DHT22;11223;49.968;9.062;2023-06-04T14:51:13;25.90;50.50
22114;DHT22;11223;49.968;9.062;2023-06-04T14:53:40;26.60;46.20
22114;DHT22;11223;49.968;9.062;2023-06-04T14:56:06;27.20;41.70
22114;DHT22;11223;49.968;9.062;2023-06-04T14:58:31;27.30;42.50
22114;DHT22;11223;49.968;9.062;2023-06-04T15:00:59;27.20;42.70
22114;DHT22;11223;49.968;9.062;2023-06-04T15:03:25;27.00;44.30
22114;DHT22;11223;49.968;9.062;2023-06-04T15:05:51;26.70;45.90
22114;DHT22;11223;49.968;9.062;2023-06-04T15:08:17;26.30;47.30
22114;DHT22;11223;49.968;9.062;2023-06-04T15:10:42;26.00;50.30
22114;DHT22;11223;49.968;9.062;2023-06-04T15:13:08;25.70;51.10
22114;DHT22;11223;49.968;9.062;2023-06-04T15:15:34;25.40;52.90
22114;DHT22;11223;49.968;9.062;2023-06-04T15:17:59;25.20;54.70
22114;DHT22;11223;49.968;9.062;2023-06-04T15:20:25;25.00;58.40
22114;DHT22;11223;49.968;9.062;2023-06-04T15:22:53;24.70;58.20
22114;DHT22;11223;49.968;9.062;2023-06-04T15:25:19;24.40;58.80
22114;DHT22;11223;49.968;9.062;2023-06-04T15:27:44;24.30;60.00
22114;DHT22;11223;49.968;9.062;2023-06-04T15:30:10;24.10;59.90
22114;DHT22;11223;49.968;9.062;2023-06-04T15:32:36;23.80;59.90